sensor_id;sensor_type;location;lat;lon;timestamp;pressure;altitude;pressure_sealevel;temperature;humidity
59531;BME280;45349;48.692;8.186;2023-03-03T00:00:28;98920.16;;;0.11;100.00
59531;BME280;45349;48.692;8.186;2023-03-03T00:02:56;98924.09;;;0.19;100.00
59531;BME280;45349;48.692;8.186;2023-03-03T00:05:26;98923.88;;;0.23;100.00
59531;BME280;45349;48.692;8.186;2023-03-03T00:07:52;98925.97;;;0.33;100.00
59531;BME280;45349;48.692;8.186;2023-03-03T00:10:19;98921.19;;;0.42;100.00
59531;BME280;45349;48.692;8.186;2023-03-03T00:12:47;98926.25;;;0.44;100.00
59531;BME280;45349;48.692;8.186;2023-03-03T00:15:16;98930.16;;;0.51;100.00
59531;BME280;45349;48.692;8.186;2023-03-03T00:17:44;98929.00;;;0.57;100.00
59531;BME280;45349;48.692;8.186;2023-03-03T00:20:26;98924.94;;;0.69;100.00
59531;BME280;45349;48.692;8.186;2023-03-03T00:22:54;98928.03;;;0.76;100.00
59531;BME280;45349;48.692;8.186;2023-03-03T00:25:27;98927.72;;;0.82;100.00
59531;BME280;45349;48.692;8.186;2023-03-03T00:28:00;98929.97;;;0.88;100.00
59531;BME280;45349;48.692;8.186;2023-03-03T00:30:27;98922.41;;;0.85;100.00
59531;BME280;45349;48.692;8.186;2023-03-03T00:32:55;98922.25;;;0.88;100.00
59531;BME280;45349;48.692;8.186;2023-03-03T00:35:25;98916.28;;;0.87;100.00
59531;BME280;45349;48.692;8.186;2023-03-03T00:37:54;98922.25;;;0.88;100.00
59531;BME280;45349;48.692;8.186;2023-03-03T00:40:23;98915.47;;;0.87;100.00
59531;BME280;45349;48.692;8.186;2023-03-03T00:42:52;98924.41;;;0.80;100.00
59531;BME280;45349;48.692;8.186;2023-03-03T00:45:30;98924.56;;;0.77;100.00
59531;BME280;45349;48.692;8.186;2023-03-03T00:48:10;98917.03;;;0.73;100.00
59531;BME280;45349;48.692;8.186;2023-03-03T00:50:42;98916.59;;;0.65;100.00
59531;BME280;45349;48.692;8.186;2023-03-03T00:53:11;98913.19;;;0.65;100.00
59531;BME280;45349;48.692;8.186;2023-03-03T00:55:39;98916.06;;;0.58;100.00
59531;BME280;45349;48.692;8.186;2023-03-03T00:58:06;98918.88;;;0.54;100.00
59531;BME280;45349;48.692;8.186;2023-03-03T01:00:39;98909.69;;;0.50;100.00
59531;BME280;45349;48.692;8.186;2023-03-03T01:03:12;98919.13;;;0.49;100.00
59531;BME280;45349;48.692;8.186;2023-03-03T01:05:39;98914.16;;;0.46;100.00
59531;BME280;45349;48.692;8.186;2023-03-03T01:08:06;98919.19;;;0.48;100.00
59531;BME280;45349;48.692;8.186;2023-03-03T01:10:35;98918.53;;;0.44;100.00
59531;BME280;45349;48.692;8.186;2023-03-03T01:13:03;98915.53;;;0.36;100.00
59531;BME280;45349;48.692;8.186;2023-03-03T01:15:30;98914.09;;;0.30;100.00
59531;BME280;45349;48.692;8.186;2023-03-03T01:17:57;98913.44;;;0.26;100.00
59531;BME280;45349;48.692;8.186;2023-03-03T01:20:25;98907.56;;;0.24;100.00
59531;BME280;45349;48.692;8.186;2023-03-03T01:22:52;98911.69;;;0.27;100.00
59531;BME280;45349;48.692;8.186;2023-03-03T01:25:18;98914.25;;;0.27;100.00
59531;BME280;45349;48.692;8.186;2023-03-03T01:27:45;98918.50;;;0.28;100.00
59531;BME280;45349;48.692;8.186;2023-03-03T01:30:12;98916.38;;;0.19;100.00
59531;BME280;45349;48.692;8.186;2023-03-03T01:32:39;98909.28;;;0.06;100.00
59531;BME280;45349;48.692;8.186;2023-03-03T01:35:06;98907.97;;;-0.01;100.00
59531;BME280;45349;48.692;8.186;2023-03-03T01:37:34;98911.59;;;-0.05;100.00
59531;BME280;45349;48.692;8.186;2023-03-03T01:40:02;98905.88;;;-0.10;100.00
59531;BME280;45349;48.692;8.186;2023-03-03T01:42:29;98905.31;;;-0.17;100.00
59531;BME280;45349;48.692;8.186;2023-03-03T01:45:17;98901.19;;;-0.20;100.00
59531;BME280;45349;48.692;8.186;2023-03-03T01:47:49;98904.81;;;-0.24;100.00
59531;BME280;45349;48.692;8.186;2023-03-03T01:50:25;98903.91;;;-0.23;100.00
59531;BME280;45349;48.692;8.186;2023-03-03T01:52:54;98906.16;;;-0.34;100.00
59531;BME280;45349;48.692;8.186;2023-03-03T01:55:26;98898.53;;;-0.36;100.00
59531;BME280;45349;48.692;8.186;2023-03-03T01:57:58;98901.94;;;-0.35;100.00
59531;BME280;45349;48.692;8.186;2023-03-03T02:00:26;98905.78;;;-0.26;100.00
59531;BME280;45349;48.692;8.186;2023-03-03T02:02:54;98891.28;;;-0.27;100.00
59531;BME280;45349;48.692;8.186;2023-03-03T02:05:21;98884.72;;;-0.33;100.00
59531;BME280;45349;48.692;8.186;2023-03-03T02:07:50;98880.72;;;-0.39;100.00
59531;BME280;45349;48.692;8.186;2023-03-03T02:10:19;98881.63;;;-0.40;100.00
59531;BME280;45349;48.692;8.186;2023-03-03T02:12:49;98883.06;;;-0.34;100.00
59531;BME280;45349;48.692;8.186;2023-03-03T02:15:20;98876.59;;;-0.41;100.00
59531;BME280;45349;48.692;8.186;2023-03-03T02:17:49;98876.19;;;-0.51;100.00
59531;BME280;45349;48.692;8.186;2023-03-03T02:20:25;98873.78;;;-0.54;100.00
59531;BME280;45349;48.692;8.186;2023-03-03T02:22:57;98873.09;;;-0.58;100.00
59531;BME280;45349;48.692;8.186;2023-03-03T02:25:33;98867.91;;;-0.56;100.00
59531;BME280;45349;48.692;8.186;2023-03-03T02:28:03;98864.03;;;-0.65;100.00
59531;BME280;45349;48.692;8.186;2023-03-03T02:30:36;98862.81;;;-0.76;100.00
59531;BME280;45349;48.692;8.186;2023-03-03T02:33:03;98865.38;;;-0.76;100.00
59531;BME280;45349;48.692;8.186;2023-03-03T02:35:32;98873.16;;;-0.77;100.00
59531;BME280;45349;48.692;8.186;2023-03-03T02:38:06;98871.78;;;-0.84;100.00
59531;BME280;45349;48.692;8.186;2023-03-03T02:40:36;98872.75;;;-0.87;100.00
59531;BME280;45349;48.692;8.186;2023-03-03T02:43:08;98883.28;;;-0.93;100.00
59531;BME280;45349;48.692;8.186;2023-03-03T02:45:42;98876.88;;;-1.02;100.00
59531;BME280;45349;48.692;8.186;2023-03-03T02:48:09;98875.06;;;-1.00;100.00
59531;BME280;45349;48.692;8.186;2023-03-03T02:50:36;98880.81;;;-0.95;100.00
59531;BME280;45349;48.692;8.186;2023-03-03T02:53:03;98879.28;;;-0.99;100.00
59531;BME280;45349;48.692;8.186;2023-03-03T02:55:30;98887.34;;;-1.07;100.00
59531;BME280;45349;48.692;8.186;2023-03-03T02:57:56;98885.97;;;-1.14;100.00
59531;BME280;45349;48.692;8.186;2023-03-03T03:00:25;98886.34;;;-1.04;100.00
59531;BME280;45349;48.692;8.186;2023-03-03T03:02:52;98893.06;;;-1.01;100.00
59531;BME280;45349;48.692;8.186;2023-03-03T03:05:19;98885.47;;;-1.03;100.00
59531;BME280;45349;48.692;8.186;2023-03-03T03:07:45;98888.84;;;-1.02;100.00
59531;BME280;45349;48.692;8.186;2023-03-03T03:10:12;98891.25;;;-0.99;100.00
59531;BME280;45349;48.692;8.186;2023-03-03T03:12:42;98892.63;;;-0.92;100.00
59531;BME280;45349;48.692;8.186;2023-03-03T03:15:10;98894.28;;;-0.91;100.00
59531;BME280;45349;48.692;8.186;2023-03-03T03:17:38;98889.13;;;-0.90;100.00
59531;BME280;45349;48.692;8.186;2023-03-03T03:20:06;98880.56;;;-0.90;100.00
59531;BME280;45349;48.692;8.186;2023-03-03T03:22:33;98887.41;;;-0.71;100.00
59531;BME280;45349;48.692;8.186;2023-03-03T03:25:00;98898.97;;;-0.63;100.00
59531;BME280;45349;48.692;8.186;2023-03-03T03:27:28;98897.31;;;-0.64;100.00
59531;BME280;45349;48.692;8.186;2023-03-03T03:29:54;98903.19;;;-0.62;100.00
59531;BME280;45349;48.692;8.186;2023-03-03T03:32:22;98894.00;;;-0.48;100.00
59531;BME280;45349;48.692;8.186;2023-03-03T03:34:50;98894.59;;;-0.43;100.00
59531;BME280;45349;48.692;8.186;2023-03-03T03:37:19;98896.25;;;-0.42;100.00
59531;BME280;45349;48.692;8.186;2023-03-03T03:39:45;98897.78;;;-0.38;100.00
59531;BME280;45349;48.692;8.186;2023-03-03T03:42:12;98893.19;;;-0.31;100.00
59531;BME280;45349;48.692;8.186;2023-03-03T03:44:40;98900.44;;;-0.22;100.00
59531;BME280;45349;48.692;8.186;2023-03-03T03:47:06;98904.13;;;-0.10;100.00
59531;BME280;45349;48.692;8.186;2023-03-03T03:49:34;98905.56;;;-0.04;100.00
59531;BME280;45349;48.692;8.186;2023-03-03T03:52:02;98913.25;;;-0.04;100.00
59531;BME280;45349;48.692;8.186;2023-03-03T03:54:31;98911.44;;;-0.02;100.00
59531;BME280;45349;48.692;8.186;2023-03-03T03:56:58;98912.19;;;0.00;100.00
59531;BME280;45349;48.692;8.186;2023-03-03T03:59:25;98909.63;;;0.00;100.00
59531;BME280;45349;48.692;8.186;2023-03-03T04:04:34;98913.00;;;0.01;100.00
59531;BME280;45349;48.692;8.186;2023-03-03T04:07:03;98913.81;;;0.01;100.00
59531;BME280;45349;48.692;8.186;2023-03-03T04:09:29;98919.97;;;-0.02;100.00
59531;BME280;45349;48.692;8.186;2023-03-03T04:11:56;98916.56;;;-0.02;100.00
59531;BME280;45349;48.692;8.186;2023-03-03T04:14:23;98913.25;;;-0.04;100.00
59531;BME280;45349;48.692;8.186;2023-03-03T04:16:50;98910.75;;;-0.06;100.00
59531;BME280;45349;48.692;8.186;2023-03-03T04:19:17;98904.06;;;-0.08;100.00
59531;BME280;45349;48.692;8.186;2023-03-03T04:21:43;98912.66;;;-0.09;100.00
59531;BME280;45349;48.692;8.186;2023-03-03T04:24:11;98904.19;;;-0.11;100.00
59531;BME280;45349;48.692;8.186;2023-03-03T04:26:38;98908.72;;;-0.17;100.00
59531;BME280;45349;48.692;8.186;2023-03-03T04:29:05;98909.63;;;-0.18;100.00
59531;BME280;45349;48.692;8.186;2023-03-03T04:31:32;98908.44;;;-0.10;100.00
59531;BME280;45349;48.692;8.186;2023-03-03T04:33:59;98905.94;;;-0.12;100.00
59531;BME280;45349;48.692;8.186;2023-03-03T04:36:27;98907.97;;;-0.19;100.00
59531;BME280;45349;48.692;8.186;2023-03-03T04:38:54;98902.16;;;-0.22;100.00
59531;BME280;45349;48.692;8.186;2023-03-03T04:41:22;98911.75;;;-0.26;100.00
59531;BME280;45349;48.692;8.186;2023-03-03T04:43:49;98911.34;;;-0.18;100.00
59531;BME280;45349;48.692;8.186;2023-03-03T04:46:15;98910.25;;;-0.12;100.00
59531;BME280;45349;48.692;8.186;2023-03-03T04:48:42;98907.53;;;-0.09;100.00
59531;BME280;45349;48.692;8.186;2023-03-03T04:51:09;98908.19;;;-0.06;100.00
59531;BME280;45349;48.692;8.186;2023-03-03T04:53:37;98910.69;;;-0.04;100.00
59531;BME280;45349;48.692;8.186;2023-03-03T04:56:05;98909.44;;;0.03;100.00
59531;BME280;45349;48.692;8.186;2023-03-03T04:58:34;98906.56;;;0.09;100.00
59531;BME280;45349;48.692;8.186;2023-03-03T05:01:01;98912.75;;;0.23;100.00
59531;BME280;45349;48.692;8.186;2023-03-03T05:03:30;98921.81;;;0.30;100.00
59531;BME280;45349;48.692;8.186;2023-03-03T05:05:58;98922.56;;;0.32;100.00
59531;BME280;45349;48.692;8.186;2023-03-03T05:08:25;98929.19;;;0.36;100.00
59531;BME280;45349;48.692;8.186;2023-03-03T05:10:52;98922.25;;;0.38;100.00
59531;BME280;45349;48.692;8.186;2023-03-03T05:13:19;98930.63;;;0.42;100.00
59531;BME280;45349;48.692;8.186;2023-03-03T05:15:50;98927.81;;;0.47;100.00
59531;BME280;45349;48.692;8.186;2023-03-03T05:18:17;98934.72;;;0.46;100.00
59531;BME280;45349;48.692;8.186;2023-03-03T05:20:44;98933.66;;;0.50;100.00
59531;BME280;45349;48.692;8.186;2023-03-03T05:23:11;98936.78;;;0.55;100.00
59531;BME280;45349;48.692;8.186;2023-03-03T05:25:39;98936.47;;;0.62;100.00
59531;BME280;45349;48.692;8.186;2023-03-03T05:28:06;98932.81;;;0.66;100.00
59531;BME280;45349;48.692;8.186;2023-03-03T05:30:32;98935.16;;;0.70;100.00
59531;BME280;45349;48.692;8.186;2023-03-03T05:33:00;98931.59;;;0.73;100.00
59531;BME280;45349;48.692;8.186;2023-03-03T05:35:27;98933.25;;;0.74;100.00
59531;BME280;45349;48.692;8.186;2023-03-03T05:37:54;98924.63;;;0.75;100.00
59531;BME280;45349;48.692;8.186;2023-03-03T05:40:23;98929.69;;;0.77;100.00
59531;BME280;45349;48.692;8.186;2023-03-03T05:42:49;98932.94;;;0.80;100.00
59531;BME280;45349;48.692;8.186;2023-03-03T05:45:17;98939.13;;;0.76;100.00
59531;BME280;45349;48.692;8.186;2023-03-03T05:47:44;98935.50;;;0.80;100.00
59531;BME280;45349;48.692;8.186;2023-03-03T05:50:13;98936.19;;;0.84;100.00
59531;BME280;45349;48.692;8.186;2023-03-03T05:52:39;98940.41;;;0.85;100.00
59531;BME280;45349;48.692;8.186;2023-03-03T05:55:06;98941.91;;;0.89;100.00
59531;BME280;45349;48.692;8.186;2023-03-03T05:57:33;98946.88;;;0.92;100.00
59531;BME280;45349;48.692;8.186;2023-03-03T06:00:00;98952.03;;;0.92;100.00
59531;BME280;45349;48.692;8.186;2023-03-03T06:02:37;98957.16;;;0.92;100.00
59531;BME280;45349;48.692;8.186;2023-03-03T06:05:05;98952.84;;;0.93;100.00
59531;BME280;45349;48.692;8.186;2023-03-03T06:07:34;98954.50;;;0.94;100.00
59531;BME280;45349;48.692;8.186;2023-03-03T06:10:00;98959.63;;;0.94;100.00
59531;BME280;45349;48.692;8.186;2023-03-03T06:12:29;98972.50;;;0.94;100.00
59531;BME280;45349;48.692;8.186;2023-03-03T06:14:56;98966.38;;;0.96;100.00
59531;BME280;45349;48.692;8.186;2023-03-03T06:17:23;98962.03;;;0.97;100.00
59531;BME280;45349;48.692;8.186;2023-03-03T06:19:49;98972.16;;;1.00;100.00
59531;BME280;45349;48.692;8.186;2023-03-03T06:22:18;98965.13;;;1.03;100.00
59531;BME280;45349;48.692;8.186;2023-03-03T06:24:46;98973.59;;;1.06;100.00
59531;BME280;45349;48.692;8.186;2023-03-03T06:27:12;98976.81;;;1.09;100.00
59531;BME280;45349;48.692;8.186;2023-03-03T06:29:39;98981.06;;;1.10;100.00
59531;BME280;45349;48.692;8.186;2023-03-03T06:32:06;98980.03;;;1.13;100.00
59531;BME280;45349;48.692;8.186;2023-03-03T06:34:32;98987.69;;;1.14;100.00
59531;BME280;45349;48.692;8.186;2023-03-03T06:36:59;98988.28;;;1.20;100.00
59531;BME280;45349;48.692;8.186;2023-03-03T06:39:26;98985.78;;;1.18;100.00
59531;BME280;45349;48.692;8.186;2023-03-03T06:41:54;98993.91;;;1.26;100.00
59531;BME280;45349;48.692;8.186;2023-03-03T06:44:20;98985.22;;;1.29;100.00
59531;BME280;45349;48.692;8.186;2023-03-03T06:46:48;98990.34;;;1.29;100.00
59531;BME280;45349;48.692;8.186;2023-03-03T06:49:14;98987.53;;;1.33;100.00
59531;BME280;45349;48.692;8.186;2023-03-03T06:51:41;99000.06;;;1.40;100.00
59531;BME280;45349;48.692;8.186;2023-03-03T06:54:11;99000.63;;;1.45;100.00
59531;BME280;45349;48.692;8.186;2023-03-03T06:56:39;99008.13;;;1.50;100.00
59531;BME280;45349;48.692;8.186;2023-03-03T06:59:12;99009.50;;;1.55;100.00
59531;BME280;45349;48.692;8.186;2023-03-03T07:01:39;99013.75;;;1.56;100.00
59531;BME280;45349;48.692;8.186;2023-03-03T07:04:23;99011.00;;;1.59;100.00
59531;BME280;45349;48.692;8.186;2023-03-03T07:06:53;99020.06;;;1.67;100.00
59531;BME280;45349;48.692;8.186;2023-03-03T07:09:21;99010.41;;;1.70;100.00
59531;BME280;45349;48.692;8.186;2023-03-03T07:11:49;99018.63;;;1.77;100.00
59531;BME280;45349;48.692;8.186;2023-03-03T07:14:18;99019.94;;;1.84;100.00
59531;BME280;45349;48.692;8.186;2023-03-03T07:16:45;99018.53;;;1.95;100.00
59531;BME280;45349;48.692;8.186;2023-03-03T07:19:16;99029.41;;;2.00;100.00
59531;BME280;45349;48.692;8.186;2023-03-03T07:21:44;99016.91;;;2.08;100.00
59531;BME280;45349;48.692;8.186;2023-03-03T07:24:19;99013.97;;;2.14;100.00
59531;BME280;45349;48.692;8.186;2023-03-03T07:26:47;99022.34;;;2.18;100.00
59531;BME280;45349;48.692;8.186;2023-03-03T07:29:21;99024.66;;;2.22;100.00
59531;BME280;45349;48.692;8.186;2023-03-03T07:31:49;99029.38;;;2.30;100.00
59531;BME280;45349;48.692;8.186;2023-03-03T07:34:20;99027.03;;;2.42;100.00
59531;BME280;45349;48.692;8.186;2023-03-03T07:36:47;99030.59;;;2.39;100.00
59531;BME280;45349;48.692;8.186;2023-03-03T07:39:30;99028.13;;;2.38;97.92
59531;BME280;45349;48.692;8.186;2023-03-03T07:42:08;99042.19;;;2.46;97.33
59531;BME280;45349;48.692;8.186;2023-03-03T07:44:39;99041.03;;;2.21;97.49
59531;BME280;45349;48.692;8.186;2023-03-03T07:47:20;99048.41;;;2.28;98.28
59531;BME280;45349;48.692;8.186;2023-03-03T07:49:49;99056.31;;;2.25;98.37
59531;BME280;45349;48.692;8.186;2023-03-03T07:52:30;99045.59;;;2.32;97.83
59531;BME280;45349;48.692;8.186;2023-03-03T07:54:59;99049.38;;;2.41;98.79
59531;BME280;45349;48.692;8.186;2023-03-03T07:57:32;99051.41;;;2.50;96.98
59531;BME280;45349;48.692;8.186;2023-03-03T08:03:11;99057.91;;;2.72;94.54
59531;BME280;45349;48.692;8.186;2023-03-03T08:05:42;99055.31;;;2.72;94.29
59531;BME280;45349;48.692;8.186;2023-03-03T08:08:26;99053.47;;;2.60;93.25
59531;BME280;45349;48.692;8.186;2023-03-03T08:10:56;99057.50;;;2.49;93.99
59531;BME280;45349;48.692;8.186;2023-03-03T08:13:27;99064.97;;;2.54;94.67
59531;BME280;45349;48.692;8.186;2023-03-03T08:16:00;99060.84;;;2.66;94.00
59531;BME280;45349;48.692;8.186;2023-03-03T08:18:29;99060.47;;;2.72;94.96
59531;BME280;45349;48.692;8.186;2023-03-03T08:21:00;99062.78;;;2.91;94.52
59531;BME280;45349;48.692;8.186;2023-03-03T08:23:28;99062.53;;;3.10;93.98
59531;BME280;45349;48.692;8.186;2023-03-03T08:25:54;99069.31;;;3.26;92.90
59531;BME280;45349;48.692;8.186;2023-03-03T08:28:21;99077.16;;;3.24;90.90
59531;BME280;45349;48.692;8.186;2023-03-03T08:30:48;99080.19;;;3.31;90.20
59531;BME280;45349;48.692;8.186;2023-03-03T08:33:17;99083.44;;;3.20;90.01
59531;BME280;45349;48.692;8.186;2023-03-03T08:35:44;99072.00;;;3.10;90.01
59531;BME280;45349;48.692;8.186;2023-03-03T08:38:12;99085.81;;;3.09;91.54
59531;BME280;45349;48.692;8.186;2023-03-03T08:40:39;99075.06;;;3.17;91.61
59531;BME280;45349;48.692;8.186;2023-03-03T08:43:06;99084.44;;;3.32;90.80
59531;BME280;45349;48.692;8.186;2023-03-03T08:45:33;99080.72;;;3.51;90.56
59531;BME280;45349;48.692;8.186;2023-03-03T08:48:00;99080.53;;;3.68;90.05
59531;BME280;45349;48.692;8.186;2023-03-03T08:50:29;99082.47;;;3.65;88.22
59531;BME280;45349;48.692;8.186;2023-03-03T08:52:56;99076.13;;;3.83;89.25
59531;BME280;45349;48.692;8.186;2023-03-03T08:55:23;99081.72;;;4.05;87.60
59531;BME280;45349;48.692;8.186;2023-03-03T08:57:50;99079.09;;;4.19;85.80
59531;BME280;45349;48.692;8.186;2023-03-03T09:00:17;99070.69;;;4.16;85.03
59531;BME280;45349;48.692;8.186;2023-03-03T09:02:44;99068.88;;;4.03;85.84
59531;BME280;45349;48.692;8.186;2023-03-03T09:05:11;99075.44;;;4.09;86.04
59531;BME280;45349;48.692;8.186;2023-03-03T09:07:40;99064.16;;;4.10;85.33
59531;BME280;45349;48.692;8.186;2023-03-03T09:10:08;99064.41;;;4.20;84.82
59531;BME280;45349;48.692;8.186;2023-03-03T09:12:38;99059.94;;;4.22;86.08
59531;BME280;45349;48.692;8.186;2023-03-03T09:15:14;99069.06;;;4.27;85.17
59531;BME280;45349;48.692;8.186;2023-03-03T09:17:42;99065.13;;;4.35;85.36
59531;BME280;45349;48.692;8.186;2023-03-03T09:22:54;99075.78;;;4.30;83.48
59531;BME280;45349;48.692;8.186;2023-03-03T09:25:24;99077.44;;;4.31;83.18
59531;BME280;45349;48.692;8.186;2023-03-03T09:27:53;99088.91;;;4.27;82.75
59531;BME280;45349;48.692;8.186;2023-03-03T09:30:33;99087.28;;;4.39;81.14
59531;BME280;45349;48.692;8.186;2023-03-03T09:35:49;99100.78;;;4.57;80.27
59531;BME280;45349;48.692;8.186;2023-03-03T09:38:25;99106.16;;;4.67;80.87
59531;BME280;45349;48.692;8.186;2023-03-03T09:43:51;99112.09;;;4.95;78.26
59531;BME280;45349;48.692;8.186;2023-03-03T09:46:28;99109.91;;;4.76;79.17
59531;BME280;45349;48.692;8.186;2023-03-03T09:49:02;99116.31;;;4.83;76.54
59531;BME280;45349;48.692;8.186;2023-03-03T09:51:44;99123.97;;;4.84;79.54
59531;BME280;45349;48.692;8.186;2023-03-03T09:54:22;99124.63;;;5.01;76.97
59531;BME280;45349;48.692;8.186;2023-03-03T09:56:58;99129.91;;;5.12;78.41
59531;BME280;45349;48.692;8.186;2023-03-03T09:59:38;99122.94;;;4.87;76.96
59531;BME280;45349;48.692;8.186;2023-03-03T10:02:22;99121.47;;;4.70;77.88
59531;BME280;45349;48.692;8.186;2023-03-03T10:05:08;99113.63;;;4.31;80.42
59531;BME280;45349;48.692;8.186;2023-03-03T10:07:42;99117.59;;;4.09;81.71
59531;BME280;45349;48.692;8.186;2023-03-03T10:10:30;99115.25;;;4.19;82.57
59531;BME280;45349;48.692;8.186;2023-03-03T10:13:13;99116.84;;;4.35;81.61
59531;BME280;45349;48.692;8.186;2023-03-03T10:15:52;99113.91;;;4.26;80.76
59531;BME280;45349;48.692;8.186;2023-03-03T10:18:28;99116.03;;;4.07;82.68
59531;BME280;45349;48.692;8.186;2023-03-03T10:21:08;99114.56;;;4.03;84.38
59531;BME280;45349;48.692;8.186;2023-03-03T10:23:45;99111.34;;;3.99;83.12
59531;BME280;45349;48.692;8.186;2023-03-03T10:26:26;99109.94;;;4.08;83.08
59531;BME280;45349;48.692;8.186;2023-03-03T10:32:00;99111.44;;;4.25;84.77
59531;BME280;45349;48.692;8.186;2023-03-03T10:34:43;99115.31;;;4.45;82.82
59531;BME280;45349;48.692;8.186;2023-03-03T10:37:20;99108.41;;;4.46;82.35
59531;BME280;45349;48.692;8.186;2023-03-03T10:40:01;99100.72;;;4.44;84.62
59531;BME280;45349;48.692;8.186;2023-03-03T10:42:43;99109.16;;;4.61;82.51
59531;BME280;45349;48.692;8.186;2023-03-03T10:45:30;99117.38;;;5.06;81.65
59531;BME280;45349;48.692;8.186;2023-03-03T10:48:12;99123.88;;;4.99;80.63
59531;BME280;45349;48.692;8.186;2023-03-03T10:50:46;99120.59;;;5.23;79.71
59531;BME280;45349;48.692;8.186;2023-03-03T10:53:21;99123.44;;;5.44;79.43
59531;BME280;45349;48.692;8.186;2023-03-03T10:55:56;99121.69;;;5.44;79.99
59531;BME280;45349;48.692;8.186;2023-03-03T10:58:45;99128.25;;;5.74;79.01
59531;BME280;45349;48.692;8.186;2023-03-03T11:01:25;99117.25;;;5.84;77.40
59531;BME280;45349;48.692;8.186;2023-03-03T11:04:09;99118.19;;;5.83;76.33
59531;BME280;45349;48.692;8.186;2023-03-03T11:06:45;99122.06;;;5.64;77.90
59531;BME280;45349;48.692;8.186;2023-03-03T11:09:29;99114.22;;;5.53;77.67
59531;BME280;45349;48.692;8.186;2023-03-03T11:12:04;99120.63;;;5.60;77.92
59531;BME280;45349;48.692;8.186;2023-03-03T11:14:41;99112.56;;;5.89;77.58
59531;BME280;45349;48.692;8.186;2023-03-03T11:17:17;99114.44;;;5.87;77.12
59531;BME280;45349;48.692;8.186;2023-03-03T11:19:54;99113.28;;;5.54;77.06
59531;BME280;45349;48.692;8.186;2023-03-03T11:22:33;99115.97;;;5.52;76.49
59531;BME280;45349;48.692;8.186;2023-03-03T11:25:22;99110.22;;;5.36;76.94
59531;BME280;45349;48.692;8.186;2023-03-03T11:30:48;99114.00;;;5.56;74.93
59531;BME280;45349;48.692;8.186;2023-03-03T11:33:20;99109.31;;;5.61;73.83
59531;BME280;45349;48.692;8.186;2023-03-03T11:35:51;99103.63;;;5.69;72.49
59531;BME280;45349;48.692;8.186;2023-03-03T11:41:28;99101.38;;;5.51;71.46
59531;BME280;45349;48.692;8.186;2023-03-03T11:44:01;99102.56;;;5.71;69.26
59531;BME280;45349;48.692;8.186;2023-03-03T11:46:37;99110.13;;;5.74;68.08
59531;BME280;45349;48.692;8.186;2023-03-03T11:49:08;99100.75;;;5.60;68.03
59531;BME280;45349;48.692;8.186;2023-03-03T11:51:48;99096.16;;;5.64;66.92
59531;BME280;45349;48.692;8.186;2023-03-03T11:54:20;99091.06;;;5.75;66.95
59531;BME280;45349;48.692;8.186;2023-03-03T11:56:48;99089.34;;;5.87;67.46
59531;BME280;45349;48.692;8.186;2023-03-03T11:59:34;99089.81;;;5.81;67.04
59531;BME280;45349;48.692;8.186;2023-03-03T12:02:14;99084.22;;;5.99;66.89
59531;BME280;45349;48.692;8.186;2023-03-03T12:04:48;99087.38;;;5.91;67.69
59531;BME280;45349;48.692;8.186;2023-03-03T12:07:25;99079.47;;;6.05;66.80
59531;BME280;45349;48.692;8.186;2023-03-03T12:10:04;99080.53;;;5.90;66.66
59531;BME280;45349;48.692;8.186;2023-03-03T12:12:38;99072.75;;;6.03;66.75
59531;BME280;45349;48.692;8.186;2023-03-03T12:15:18;99061.47;;;5.91;67.17
59531;BME280;45349;48.692;8.186;2023-03-03T12:18:07;99054.41;;;5.93;68.01
59531;BME280;45349;48.692;8.186;2023-03-03T12:20:45;99057.38;;;6.00;67.63
59531;BME280;45349;48.692;8.186;2023-03-03T12:23:25;99049.50;;;6.26;67.60
59531;BME280;45349;48.692;8.186;2023-03-03T12:26:02;99053.47;;;6.54;68.25
59531;BME280;45349;48.692;8.186;2023-03-03T12:28:37;99053.88;;;6.72;66.26
59531;BME280;45349;48.692;8.186;2023-03-03T12:31:18;99051.78;;;6.89;65.54
59531;BME280;45349;48.692;8.186;2023-03-03T12:33:54;99047.28;;;7.14;66.38
59531;BME280;45349;48.692;8.186;2023-03-03T12:36:31;99052.38;;;7.38;64.71
59531;BME280;45349;48.692;8.186;2023-03-03T12:39:06;99044.97;;;7.66;64.11
59531;BME280;45349;48.692;8.186;2023-03-03T12:41:43;99052.97;;;7.86;63.16
59531;BME280;45349;48.692;8.186;2023-03-03T12:44:15;99045.81;;;7.99;62.04
59531;BME280;45349;48.692;8.186;2023-03-03T12:46:52;99049.94;;;8.34;67.48
59531;BME280;45349;48.692;8.186;2023-03-03T12:49:27;99045.38;;;8.48;64.60
59531;BME280;45349;48.692;8.186;2023-03-03T12:52:07;99040.81;;;8.82;61.74
59531;BME280;45349;48.692;8.186;2023-03-03T12:54:48;99040.75;;;9.04;59.14
59531;BME280;45349;48.692;8.186;2023-03-03T12:57:25;99034.25;;;9.19;57.65
59531;BME280;45349;48.692;8.186;2023-03-03T13:00:27;99040.44;;;9.28;57.33
59531;BME280;45349;48.692;8.186;2023-03-03T13:03:00;99031.16;;;9.04;55.14
59531;BME280;45349;48.692;8.186;2023-03-03T13:05:38;99033.72;;;8.94;57.97
59531;BME280;45349;48.692;8.186;2023-03-03T13:11:18;99038.59;;;8.35;58.19
59531;BME280;45349;48.692;8.186;2023-03-03T13:13:51;99034.72;;;8.51;57.41
59531;BME280;45349;48.692;8.186;2023-03-03T13:16:21;99019.84;;;8.20;58.89
59531;BME280;45349;48.692;8.186;2023-03-03T13:18:56;99030.44;;;8.28;58.72
59531;BME280;45349;48.692;8.186;2023-03-03T13:21:32;99020.59;;;8.11;58.35
59531;BME280;45349;48.692;8.186;2023-03-03T13:24:06;99021.13;;;8.26;57.71
59531;BME280;45349;48.692;8.186;2023-03-03T13:26:42;99018.78;;;8.44;57.33
59531;BME280;45349;48.692;8.186;2023-03-03T13:29:14;99012.69;;;8.34;57.34
59531;BME280;45349;48.692;8.186;2023-03-03T13:31:47;99010.28;;;8.42;58.09
59531;BME280;45349;48.692;8.186;2023-03-03T13:34:24;99008.00;;;8.49;58.03
59531;BME280;45349;48.692;8.186;2023-03-03T13:37:00;99006.63;;;8.45;56.67
59531;BME280;45349;48.692;8.186;2023-03-03T13:39:32;99007.59;;;8.75;56.34
59531;BME280;45349;48.692;8.186;2023-03-03T13:42:02;99011.34;;;8.82;56.20
59531;BME280;45349;48.692;8.186;2023-03-03T13:44:33;99009.94;;;8.78;56.71
59531;BME280;45349;48.692;8.186;2023-03-03T13:47:09;98992.47;;;8.59;56.21
59531;BME280;45349;48.692;8.186;2023-03-03T13:49:58;99004.63;;;8.79;56.33